Forside
METAR-TAF:

METAR-TAF

Lufthavne :

Kaunas Airport

Kaunas, Litauen

Breddekreds: 54-54N, længdekreds: 023-55-12E, højde: 77 m

Aktuelle vejr

Denne rapport blev lavet for 22 minutter siden, kl. 09:20 UTC
Vind 5 kt fra sydsydøst, varierende mellem øst og vestsydvest
Temperatur 24°C
Fugtighed 47%
Tryk 1025 hPa
Sigt 10 km eller mere
ingen skyer under 1500m og ingen cumulonimbus

METAR: EYKA 260920Z 16005KT 080V250 CAVOK 24/12 Q1025

Tid: 12:42 (09:42 UTC)

Vejrudsigter

Denne rapport blev lavet for 4 timer og 37 minutter siden, kl. 05:05 UTC
Foreløbig gælder fra 26 på 06 UTC til 27 på 06 UTC
Vind 8 kt fra sydøst
Sigt: 9000 m
Midlertidig
fra 26 på 09 UTC til 26 på 15 UTC
Nogle få skyer i en højde af 5000 ft, Optårnet Cumulus.

TAF: EYKA 260505Z 2606/2706 14008KT 9000 NSC TEMPO 2609/2615 FEW050TCU

Vejrobservationer og prognoser fra mere end 4000 lufthavne (METAR og TAF).

De gule og røde prikker repræsenterer de meteorologiske stationer.

Flyt musen over at se navnet på stationen.

Så klik over at se vejr observationer og prognoser.

At skifte det kort: Klik på de grønne knapper med et sort kors for at zoome ind; på den grønne knap med en bindestreg for at zoome ud; eller på de grønne pile for tilstødende kort.


METAR-TAF: